createdAt,value
2023-03-22T00:00:47.811Z,92.82
2023-03-22T00:03:15.289Z,93.34
2023-03-22T00:05:44.121Z,93.29
2023-03-22T00:08:13.314Z,92.96
2023-03-22T00:13:43.869Z,92.94
2023-03-22T00:16:11.753Z,93.02
2023-03-22T00:18:39.228Z,93.33
2023-03-22T00:21:12.090Z,92.83
2023-03-22T00:26:36.117Z,93.22
2023-03-22T00:29:04.768Z,93.20
2023-03-22T00:34:32.131Z,92.14
2023-03-22T00:37:02.122Z,92.41
2023-03-22T00:39:29.975Z,91.97
2023-03-22T00:41:57.464Z,92.29
2023-03-22T00:44:25.265Z,92.01
2023-03-22T00:49:55.596Z,91.18
2023-03-22T00:52:25.207Z,92.21
2023-03-22T00:54:52.705Z,92.50
2023-03-22T00:57:20.476Z,92.74
2023-03-22T00:59:48.174Z,92.89
2023-03-22T01:02:15.911Z,93.90
2023-03-22T01:04:46.182Z,94.05
2023-03-22T01:07:17.906Z,92.81
2023-03-22T01:09:46.660Z,94.23
2023-03-22T01:12:16.459Z,92.57
2023-03-22T01:14:44.358Z,93.78
2023-03-22T01:20:12.250Z,93.98
2023-03-22T01:22:39.726Z,93.96
2023-03-22T01:25:09.661Z,92.88
2023-03-22T01:27:37.214Z,93.66
2023-03-22T01:30:05.651Z,94.48
2023-03-22T01:32:33.268Z,94.72
2023-03-22T01:38:13.640Z,94.93
2023-03-22T01:40:52.016Z,94.40
2023-03-22T01:43:19.624Z,93.58
2023-03-22T01:45:48.945Z,93.26
2023-03-22T01:51:25.834Z,93.16
2023-03-22T01:57:04.191Z,93.76
2023-03-22T01:59:41.371Z,95.39
2023-03-22T02:02:19.027Z,95.07
2023-03-22T02:04:57.916Z,94.87
2023-03-22T02:10:12.113Z,95.01
2023-03-22T02:15:59.903Z,94.40
2023-03-22T02:18:51.903Z,94.03
2023-03-22T02:21:32.862Z,93.18
2023-03-22T02:24:24.659Z,93.09
2023-03-22T02:27:07.403Z,93.79
2023-03-22T02:29:41.382Z,94.11
2023-03-22T02:35:34.906Z,93.44
2023-03-22T02:38:17.523Z,93.29
2023-03-22T02:40:51.627Z,93.30
2023-03-22T02:43:26.066Z,93.41
2023-03-22T02:45:57.256Z,92.77
2023-03-22T02:48:28.612Z,93.23
2023-03-22T02:53:49.190Z,93.21
2023-03-22T02:56:21.372Z,93.50
2023-03-22T02:58:51.848Z,93.05
2023-03-22T03:01:23.022Z,93.64
2023-03-22T03:03:51.949Z,93.69
2023-03-22T03:06:21.357Z,93.52
2023-03-22T03:08:51.614Z,93.16
2023-03-22T03:11:21.512Z,92.39
2023-03-22T03:13:50.719Z,92.47
2023-03-22T03:16:21.394Z,92.64
2023-03-22T03:18:52.302Z,92.74
2023-03-22T03:21:32.464Z,93.46
2023-03-22T03:24:19.730Z,93.89
2023-03-22T03:26:55.480Z,93.89
2023-03-22T03:32:29.065Z,93.20
2023-03-22T03:34:59.275Z,93.83
2023-03-22T03:40:31.873Z,94.48
2023-03-22T03:43:03.806Z,94.65
2023-03-22T03:45:31.838Z,94.66
2023-03-22T03:48:02.155Z,94.78
2023-03-22T03:50:29.842Z,94.90
2023-03-22T03:55:46.170Z,93.87
2023-03-22T03:58:16.688Z,92.89
2023-03-22T04:00:46.502Z,92.86
2023-03-22T04:03:23.020Z,92.86
2023-03-22T04:06:12.662Z,92.47
2023-03-22T04:11:44.083Z,92.92
2023-03-22T04:17:16.047Z,92.33
2023-03-22T04:19:44.591Z,92.23
2023-03-22T04:22:14.679Z,91.94
2023-03-22T04:25:19.533Z,92.26
2023-03-22T04:27:56.819Z,92.38
2023-03-22T04:33:32.403Z,91.50
2023-03-22T04:36:18.070Z,91.91
2023-03-22T04:39:05.854Z,91.99
2023-03-22T04:41:33.987Z,92.48
2023-03-22T04:44:03.075Z,92.65
2023-03-22T04:46:33.304Z,92.62
2023-03-22T04:49:06.750Z,92.23
2023-03-22T04:54:37.553Z,93.35
2023-03-22T04:57:05.496Z,92.62
2023-03-22T04:59:38.784Z,92.05
2023-03-22T05:02:06.319Z,91.74
2023-03-22T05:04:42.220Z,92.34
2023-03-22T05:07:19.146Z,92.13
2023-03-22T05:09:52.059Z,92.55
2023-03-22T05:12:19.686Z,92.33
2023-03-22T05:17:56.611Z,91.76
2023-03-22T05:20:25.916Z,92.56
2023-03-22T05:23:27.182Z,93.84
2023-03-22T05:25:58.157Z,93.58
2023-03-22T05:28:28.371Z,93.58
2023-03-22T05:31:11.540Z,93.57
2023-03-22T05:33:47.332Z,93.27
2023-03-22T05:36:20.338Z,93.45
2023-03-22T05:39:09.611Z,92.78
2023-03-22T05:42:14.549Z,92.15
2023-03-22T05:44:42.159Z,94.09
2023-03-22T05:50:17.746Z,93.34
2023-03-22T05:52:46.781Z,93.72
2023-03-22T05:55:34.543Z,93.65
2023-03-22T05:58:05.202Z,94.61
2023-03-22T06:03:29.116Z,94.18
2023-03-22T06:06:01.890Z,94.51
2023-03-22T06:08:41.668Z,93.95
2023-03-22T06:11:09.823Z,93.63
2023-03-22T06:13:38.200Z,93.33
2023-03-22T06:16:07.900Z,92.07
2023-03-22T06:18:35.795Z,91.41
2023-03-22T06:21:08.976Z,90.79
2023-03-22T06:23:37.774Z,90.28
2023-03-22T06:26:06.779Z,89.81
2023-03-22T06:31:33.113Z,88.49
2023-03-22T06:37:07.702Z,85.00
2023-03-22T06:39:38.602Z,84.19
2023-03-22T06:42:07.408Z,84.73
2023-03-22T06:44:35.348Z,83.83
2023-03-22T06:50:15.783Z,85.27
2023-03-22T06:56:11.687Z,79.13
2023-03-22T06:58:51.688Z,78.40
2023-03-22T07:01:19.553Z,81.21
2023-03-22T07:03:47.235Z,80.79
2023-03-22T07:06:16.822Z,82.74
2023-03-22T07:08:50.686Z,83.80
2023-03-22T07:11:22.084Z,83.66
2023-03-22T07:13:58.488Z,86.14
2023-03-22T07:16:29.413Z,86.04
2023-03-22T07:18:59.811Z,86.20
2023-03-22T07:21:27.342Z,84.81
2023-03-22T07:23:58.639Z,86.19
2023-03-22T07:26:30.436Z,85.25
2023-03-22T07:31:59.012Z,86.94
2023-03-22T07:34:32.691Z,84.92
2023-03-22T07:37:25.584Z,85.19
2023-03-22T07:39:53.155Z,85.08
2023-03-22T07:42:20.722Z,83.69
2023-03-22T07:45:09.183Z,81.37
2023-03-22T07:50:50.199Z,80.67
2023-03-22T07:53:17.667Z,82.93
2023-03-22T07:55:45.233Z,82.44
2023-03-22T07:58:12.939Z,82.18
2023-03-22T08:00:40.895Z,83.28
2023-03-22T08:03:28.538Z,82.99
2023-03-22T08:06:07.966Z,83.73
2023-03-22T08:08:37.726Z,83.13
2023-03-22T08:11:05.999Z,83.90
2023-03-22T08:13:34.040Z,82.58
2023-03-22T08:16:01.807Z,83.45
2023-03-22T08:18:31.345Z,83.19
2023-03-22T08:21:00.211Z,81.67
2023-03-22T08:23:41.417Z,80.60
2023-03-22T08:26:27.933Z,80.62
2023-03-22T08:28:58.224Z,81.75
2023-03-22T08:34:24.586Z,80.11
2023-03-22T08:36:52.651Z,79.31
2023-03-22T08:42:19.950Z,78.13
2023-03-22T08:44:47.645Z,76.46
2023-03-22T08:47:15.435Z,77.51
2023-03-22T08:52:46.628Z,79.39
2023-03-22T08:55:24.734Z,77.53
2023-03-22T08:58:12.702Z,74.48
2023-03-22T09:01:13.266Z,76.45
2023-03-22T09:06:52.675Z,75.60
2023-03-22T09:09:20.241Z,74.06
2023-03-22T09:12:07.283Z,72.17
2023-03-22T09:14:37.599Z,74.35
2023-03-22T09:17:05.530Z,74.25
2023-03-22T09:19:33.355Z,72.67
2023-03-22T09:22:01.913Z,73.89
2023-03-22T09:24:41.032Z,75.16
2023-03-22T09:27:08.549Z,73.35
2023-03-22T09:29:37.383Z,72.59
2023-03-22T09:32:09.080Z,72.44
2023-03-22T09:34:39.341Z,71.52
2023-03-22T09:37:07.607Z,71.03
2023-03-22T09:39:49.766Z,70.90
2023-03-22T09:45:29.882Z,71.57
2023-03-22T09:47:58.324Z,67.77
2023-03-22T09:50:27.626Z,68.61
2023-03-22T09:56:03.057Z,68.08
2023-03-22T09:58:34.506Z,69.35
2023-03-22T10:01:05.451Z,69.41
2023-03-22T10:06:31.958Z,66.00
2023-03-22T10:09:07.678Z,66.82
2023-03-22T10:11:44.403Z,68.28
2023-03-22T10:14:24.916Z,67.79
2023-03-22T10:16:56.649Z,66.84
2023-03-22T10:19:28.069Z,66.34
2023-03-22T10:21:57.274Z,67.63
2023-03-22T10:24:28.160Z,64.89
2023-03-22T10:26:55.945Z,62.20
2023-03-22T10:29:25.338Z,64.78
2023-03-22T10:31:55.499Z,63.99
2023-03-22T10:34:24.431Z,64.30
2023-03-22T10:36:53.267Z,65.58
2023-03-22T10:39:28.454Z,66.24
2023-03-22T10:41:58.240Z,64.18
2023-03-22T10:44:27.572Z,63.92
2023-03-22T10:46:56.977Z,63.33
2023-03-22T10:49:27.690Z,63.26
2023-03-22T10:55:01.217Z,62.35
2023-03-22T10:57:29.821Z,60.14
2023-03-22T10:59:58.030Z,63.63
2023-03-22T11:02:28.538Z,65.06
2023-03-22T11:04:58.515Z,63.00
2023-03-22T11:10:32.466Z,63.52
2023-03-22T11:16:09.726Z,62.76
2023-03-22T11:18:42.396Z,63.33
2023-03-22T11:21:12.208Z,60.64
2023-03-22T11:23:42.685Z,56.95
2023-03-22T11:29:16.379Z,62.47
2023-03-22T11:31:56.967Z,59.29
2023-03-22T11:34:27.820Z,60.71
2023-03-22T11:36:57.384Z,60.35
2023-03-22T11:39:28.173Z,58.27
2023-03-22T11:41:59.921Z,59.87
2023-03-22T11:44:28.411Z,61.07
2023-03-22T11:46:57.786Z,60.76
2023-03-22T11:49:29.126Z,60.55
2023-03-22T11:51:57.012Z,60.55
2023-03-22T11:57:26.285Z,58.85
2023-03-22T11:59:57.721Z,63.27
2023-03-22T12:02:27.751Z,60.83
2023-03-22T12:05:01.670Z,58.17
2023-03-22T12:10:29.738Z,58.68
2023-03-22T12:13:00.283Z,60.96
2023-03-22T12:15:30.579Z,58.79
2023-03-22T12:18:01.985Z,59.72
2023-03-22T12:20:37.499Z,58.47
2023-03-22T12:23:13.626Z,59.82
2023-03-22T12:25:42.138Z,55.25
2023-03-22T12:28:13.973Z,57.73
2023-03-22T12:30:44.470Z,57.83
2023-03-22T12:33:17.681Z,59.79
2023-03-22T12:35:47.161Z,56.33
2023-03-22T12:41:13.706Z,57.23
2023-03-22T12:46:49.403Z,59.53
2023-03-22T12:49:22.567Z,60.11
2023-03-22T12:51:52.992Z,61.65
2023-03-22T12:54:22.864Z,57.83
2023-03-22T12:59:50.768Z,58.40
2023-03-22T13:02:21.486Z,58.04
2023-03-22T13:04:54.601Z,57.53
2023-03-22T13:07:38.106Z,59.80
2023-03-22T13:10:47.568Z,62.81
2023-03-22T13:13:43.080Z,61.09
2023-03-22T13:16:24.619Z,68.00
2023-03-22T13:19:01.740Z,67.53
2023-03-22T13:21:31.064Z,73.44
2023-03-22T13:24:02.254Z,72.18
2023-03-22T13:26:36.327Z,75.41
2023-03-22T13:31:58.506Z,77.90
2023-03-22T13:34:37.385Z,79.71
2023-03-22T13:37:09.614Z,76.51
2023-03-22T13:39:39.168Z,74.42
2023-03-22T13:44:59.844Z,77.42
2023-03-22T13:47:35.768Z,78.69
2023-03-22T13:53:08.983Z,78.52
2023-03-22T13:55:42.540Z,77.67
2023-03-22T13:58:12.763Z,75.64
2023-03-22T14:03:43.856Z,74.69
2023-03-22T14:06:15.621Z,75.18
2023-03-22T14:08:44.043Z,74.00
2023-03-22T14:11:21.451Z,71.34
2023-03-22T14:13:51.215Z,71.90
2023-03-22T14:16:21.544Z,68.68
